Weather reports worldwide

Advertisment
Parma, Italy (16086): temperature & dewpoint: 22.01.2020 08:00:00 - 28.01.2020 08:00:00 (CET)Parma, Italy (16086): wind speed: 22.01.2020 08:00:00 - 28.01.2020 08:00:00 (CET)Parma, Italy (16086): wind direction: 22.01.2020 08:00:00 - 28.01.2020 08:00:00 (CET)Parma, Italy (16086): reduced air pressure: 22.01.2020 08:00:00 - 28.01.2020 08:00:00 (CET)Parma, Italy (16086): precipitation: 22.01.2020 08:00:00 - 28.01.2020 08:00:00 (CET)
Date & Time tt [°C] td [°C] ff [km/h] ff [kn] dd ppp [hPa] rr [mm]
28.01.2020 08:00:00 - - - - - - -
28.01.2020 07:00:00 5,6 5,6 6 3 N 1010,5 0,0
28.01.2020 06:00:00 5,4 5,3 4 2 ESE 1011,1 0,0
28.01.2020 05:00:00 5,4 5,1 5 3 NNW 1010,9 0,0
28.01.2020 04:00:00 5,6 5,2 3 2 E 1011,7 0,0
28.01.2020 03:00:00 5,9 5,5 6 3 E 1012,8 0,0
28.01.2020 02:00:00 6,1 5,4 8 4 E 1013,1 0,0
28.01.2020 01:00:00 6,7 5,5 10 5 E 1014,1 0,0
28.01.2020 00:00:00 7,1 5,7 4 2 E 1015,6 0,0
27.01.2020 23:00:00 7,1 5,6 5 3 E 1015,7 0,0
27.01.2020 22:00:00 7,3 5,4 7 4 ENE 1016,2 0,0
27.01.2020 21:00:00 8,2 5,5 9 5 E 1016,9 0,0
27.01.2020 20:00:00 8,4 5,2 7 4 E 1017,6 0,0
27.01.2020 19:00:00 8,5 5,1 5 3 E 1017,7 0,0
27.01.2020 18:00:00 9,1 5,3 6 3 E 1017,7 0,0
27.01.2020 17:00:00 9,7 5,1 - - - 1018,2 0,0
27.01.2020 16:00:00 10,3 5,3 4 2 NE 1018,5 0,0
27.01.2020 15:00:00 10,5 4,6 4 2 ENE 1018,5 0,0
27.01.2020 14:00:00 10,0 4,8 3 1 W 1019,3 0,0
27.01.2020 13:00:00 - - - - - - -
27.01.2020 12:00:00 8,5 4,9 4 2 WNW 1020,8 0,0
27.01.2020 11:00:00 7,3 4,8 3 2 NNW 1021,2 0,0
27.01.2020 10:00:00 6,0 4,2 2 1 W 1021,5 0,0
27.01.2020 09:00:00 5,6 3,9 3 1 W 1021,5 0,0
27.01.2020 08:00:00 5,0 3,5 1 1 SSW 1021,3 0,0
27.01.2020 07:00:00 4,6 3,1 4 2 WSW 1020,8 0,0
27.01.2020 06:00:00 5,3 3,5 3 2 WSW 1020,6 0,0
27.01.2020 05:00:00 5,7 - 3 1 SSW 1020,5 -
27.01.2020 04:00:00 6,0 4,0 5 3 SW 1020,5 0,0
27.01.2020 03:00:00 5,8 3,8 5 3 SW 1021,0 0,0
27.01.2020 02:00:00 5,6 3,8 6 4 SSW 1021,0 0,0
27.01.2020 01:00:00 5,7 3,9 4 2 WSW 1021,3 0,0
27.01.2020 00:00:00 5,6 4,4 5 3 SW 1021,4 0,0
26.01.2020 23:00:00 5,7 4,3 5 3 SW 1021,3 0,0
26.01.2020 22:00:00 6,1 4,6 6 4 SW 1021,6 0,0
26.01.2020 21:00:00 6,6 4,9 5 3 SW 1021,3 0,0
26.01.2020 20:00:00 7,2 5,3 - - - 1021,1 0,0
26.01.2020 19:00:00 8,3 5,8 1 1 SSE 1020,8 0,0
26.01.2020 18:00:00 8,6 - - - - - -
26.01.2020 17:00:00 9,6 5,8 1 1 NW 1020,7 0,0
26.01.2020 16:00:00 10,1 5,7 3 1 NW 1021,0 0,0
26.01.2020 15:00:00 10,0 5,6 5 3 WSW 1021,3 0,0
26.01.2020 14:00:00 9,1 5,3 5 3 W 1021,8 0,0
26.01.2020 13:00:00 8,6 5,2 4 2 WNW 1022,4 0,0
26.01.2020 12:00:00 8,0 4,6 5 3 W 1023,2 0,0
26.01.2020 11:00:00 7,4 4,5 2 1 WNW 1023,5 0,0
26.01.2020 10:00:00 6,7 4,0 4 2 WNW 1023,4 0,0
26.01.2020 09:00:00 6,3 4,8 - - - 1023,4 -
26.01.2020 08:00:00 6,2 5,0 4 2 SW 1023,2 0,0
26.01.2020 07:00:00 6,0 5,1 4 2 WSW 1022,9 0,0
26.01.2020 06:00:00 6,0 5,3 3 2 SW 1022,8 0,0
26.01.2020 05:00:00 5,8 5,1 3 2 WSW 1022,9 0,2
26.01.2020 04:00:00 5,9 4,7 3 2 WSW 1023,2 0,0
26.01.2020 03:00:00 5,8 4,6 - - - 1023,6 0,0
26.01.2020 02:00:00 5,8 4,4 - - - 1023,7 0,0
26.01.2020 01:00:00 5,9 4,7 4 2 SW 1023,9 0,0
26.01.2020 00:00:00 5,7 4,5 - - - 1024,2 0,0
25.01.2020 23:00:00 5,9 4,7 3 1 W 1024,4 0,0
25.01.2020 22:00:00 5,9 4,9 4 2 SSW 1024,6 0,6
25.01.2020 21:00:00 5,8 - - - - - -
25.01.2020 20:00:00 5,7 4,7 - - - 1024,7 1,0
25.01.2020 19:00:00 5,7 4,5 1 1 NW 1024,4 0,6
25.01.2020 18:00:00 5,8 4,9 2 1 NW 1024,4 0,4
25.01.2020 17:00:00 5,8 4,8 2 1 WSW 1024,3 0,4
25.01.2020 16:00:00 5,6 4,7 3 2 W 1024,6 0,2
25.01.2020 15:00:00 5,2 4,6 4 2 WSW 1024,8 0,0
25.01.2020 14:00:00 4,9 4,3 5 3 W 1025,4 0,0
25.01.2020 13:00:00 4,9 4,2 5 3 W 1026,2 0,2
25.01.2020 12:00:00 4,7 4,0 5 3 W 1026,8 0,0
25.01.2020 11:00:00 4,4 3,7 6 3 W 1027,1 0,0
25.01.2020 10:00:00 4,4 3,7 4 2 W 1026,9 0,0
25.01.2020 09:00:00 4,3 3,6 4 2 W 1026,9 0,0
25.01.2020 08:00:00 4,2 3,5 5 3 W 1026,5 0,0
25.01.2020 07:00:00 4,3 3,3 5 3 WSW 1026,4 0,0
25.01.2020 06:00:00 4,3 3,1 5 3 W 1026,2 0,0
25.01.2020 05:00:00 4,3 2,8 4 2 WSW 1026,1 0,0
25.01.2020 04:00:00 4,4 2,7 4 2 WSW 1026,5 0,0
25.01.2020 03:00:00 4,5 2,4 2 1 W 1026,9 0,0
25.01.2020 02:00:00 4,9 2,1 3 2 WNW 1027,1 0,0
25.01.2020 01:00:00 5,1 1,9 3 1 NW 1027,4 0,0
25.01.2020 00:00:00 5,4 1,7 1 0 NNE 1027,6 0,0
24.01.2020 23:00:00 5,3 - 2 1 NNE 1027,6 0,0
24.01.2020 22:00:00 5,6 - 4 2 E - -
24.01.2020 21:00:00 5,6 1,7 6 3 ENE 1027,8 0,0
24.01.2020 20:00:00 5,9 1,8 6 3 ENE 1027,7 0,0
24.01.2020 19:00:00 6,4 1,7 7 4 ENE 1027,3 0,0
24.01.2020 18:00:00 6,7 1,8 6 3 ENE 1027,5 0,0
24.01.2020 17:00:00 7,2 2,1 6 3 ENE 1027,1 0,0
24.01.2020 16:00:00 7,5 2,2 5 3 ENE 1027,2 0,0
24.01.2020 15:00:00 7,7 1,3 5 3 ENE 1027,4 0,0
24.01.2020 14:00:00 7,3 1,4 5 3 NNE 1027,9 0,0
24.01.2020 13:00:00 7,5 0,7 4 2 NNE 1028,5 0,0
24.01.2020 12:00:00 6,8 0,0 4 2 NNE 1029,1 0,0
24.01.2020 11:00:00 5,2 -0,6 5 3 S 1029,6 0,0
24.01.2020 10:00:00 4,4 -1,0 5 3 S 1029,3 0,0
24.01.2020 09:00:00 3,6 -1,0 4 2 S 1029,4 0,0
24.01.2020 08:00:00 3,1 -0,9 5 3 SSW 1029,1 0,0
24.01.2020 07:00:00 2,2 -1,2 6 3 SW 1029,0 0,0
24.01.2020 06:00:00 2,1 -1,5 6 3 SW 1028,7 0,0
24.01.2020 05:00:00 1,9 -1,7 8 4 SW 1028,9 0,0
24.01.2020 04:00:00 2,1 -1,5 5 3 WSW 1029,3 0,0
24.01.2020 03:00:00 2,6 -1,2 8 4 SW 1029,8 0,0
24.01.2020 02:00:00 2,7 -0,9 6 4 SW 1030,2 0,0
24.01.2020 01:00:00 2,6 -1,0 7 4 SW 1030,6 0,0
24.01.2020 00:00:00 3,1 -0,9 6 3 SW 1031,1 0,0
23.01.2020 23:00:00 3,3 -0,5 8 4 SW 1031,4 0,0
23.01.2020 22:00:00 3,7 0,0 4 2 WSW 1031,6 0,0
23.01.2020 21:00:00 4,1 0,8 6 3 WSW 1031,8 0,0
23.01.2020 20:00:00 5,4 1,7 - - - 1031,5 0,0
23.01.2020 19:00:00 5,9 1,6 1 1 ENE 1031,3 0,0
23.01.2020 18:00:00 6,3 1,8 - - - - -
23.01.2020 17:00:00 7,3 1,6 4 2 NE 1030,9 0,0
23.01.2020 16:00:00 8,0 1,6 6 3 ENE 1031,1 0,0
23.01.2020 15:00:00 8,7 0,4 6 3 NE 1031,3 0,0
23.01.2020 14:00:00 8,1 -0,2 7 4 E 1031,6 0,0
23.01.2020 13:00:00 7,2 0,6 6 3 E 1032,8 0,0
23.01.2020 12:00:00 5,8 0,1 8 4 NE 1033,4 0,0
23.01.2020 11:00:00 4,2 0,0 4 2 NNE 1034,0 0,0
23.01.2020 10:00:00 3,2 -0,6 6 3 N 1033,5 0,0
23.01.2020 09:00:00 2,2 -1,2 - - - 1033,1 0,0
23.01.2020 08:00:00 0,8 -1,3 2 1 SSW 1032,6 0,0
23.01.2020 07:00:00 0,8 -1,3 1 1 SSW 1032,0 0,0
23.01.2020 06:00:00 1,7 -0,9 - - - 1031,4 -
23.01.2020 05:00:00 2,9 -0,9 0 0 S 1031,4 0,0
23.01.2020 04:00:00 2,7 -1,1 - - - 1031,5 0,0
23.01.2020 03:00:00 2,2 -0,9 7 4 SE 1031,8 0,0
23.01.2020 02:00:00 1,7 -0,7 6 3 E 1031,6 0,0
23.01.2020 01:00:00 5,1 -0,3 2 1 SSW 1031,1 0,0
23.01.2020 00:00:00 4,8 -0,6 7 4 SSW 1031,1 0,0
22.01.2020 23:00:00 4,9 -0,5 5 3 SSW 1031,3 0,0
22.01.2020 22:00:00 5,6 -0,5 6 3 S 1031,5 0,0
22.01.2020 21:00:00 5,8 0,1 2 1 S 1031,5 0,0
22.01.2020 20:00:00 6,8 -0,9 0 0 W 1031,7 0,0
22.01.2020 19:00:00 7,3 -0,7 1 1 W 1031,3 0,0
22.01.2020 18:00:00 7,7 -0,8 - - - 1031,4 0,0
22.01.2020 17:00:00 8,4 -1,2 4 2 WSW 1031,6 0,0
22.01.2020 16:00:00 9,2 -1,5 4 2 NW 1032,2 0,0
22.01.2020 15:00:00 9,1 -2,2 3 2 NW 1032,7 0,0
22.01.2020 14:00:00 8,9 -4,7 3 1 W 1033,6 0,0
22.01.2020 13:00:00 7,5 -4,0 5 3 WSW 1034,9 0,0
22.01.2020 12:00:00 5,3 -3,0 6 3 SW 1036,3 0,0
22.01.2020 11:00:00 3,0 -2,1 4 2 W 1037,0 0,0
22.01.2020 10:00:00 3,3 -1,8 5 3 W 1037,3 0,0
22.01.2020 09:00:00 2,9 -2,4 6 4 SW 1037,1 0,0
22.01.2020 08:00:00 2,7 -2,4 6 3 SW 1037,1 0,0

tt = temperature
td = dewpoint
ff = wind speed
dd = wind direction
ppp = reduced air pressure
rr = precipitation

Next stations